createdAt,value
2022-12-01T00:01:02.124Z,6.15
2022-12-01T00:03:32.121Z,5.82
2022-12-01T00:06:03.538Z,6.00
2022-12-01T00:08:30.061Z,6.00
2022-12-01T00:10:56.643Z,6.60
2022-12-01T00:13:23.123Z,6.95
2022-12-01T00:15:49.575Z,6.65
2022-12-01T00:18:16.037Z,6.30
2022-12-01T00:20:42.537Z,6.32
2022-12-01T00:23:08.998Z,6.57
2022-12-01T00:25:35.462Z,7.03
2022-12-01T00:28:01.914Z,6.45
2022-12-01T00:30:28.386Z,6.50
2022-12-01T00:32:54.890Z,6.68
2022-12-01T00:35:21.342Z,7.00
2022-12-01T00:37:47.808Z,6.03
2022-12-01T00:40:14.352Z,7.20
2022-12-01T00:42:40.894Z,6.75
2022-12-01T00:45:07.396Z,6.95
2022-12-01T00:47:33.833Z,6.80
2022-12-01T00:50:00.282Z,7.20
2022-12-01T00:52:26.729Z,6.63
2022-12-01T00:54:53.178Z,6.70
2022-12-01T00:57:19.645Z,6.82
2022-12-01T00:59:46.368Z,6.88
2022-12-01T01:02:13.037Z,7.45
2022-12-01T01:04:39.552Z,6.72
2022-12-01T01:07:06.048Z,7.22
2022-12-01T01:09:33.208Z,7.22
2022-12-01T01:11:59.772Z,7.45
2022-12-01T01:14:26.231Z,7.47
2022-12-01T01:16:52.724Z,7.10
2022-12-01T01:19:19.229Z,7.32
2022-12-01T01:21:45.686Z,7.53
2022-12-01T01:24:12.398Z,6.78
2022-12-01T01:26:38.870Z,7.80
2022-12-01T01:29:07.478Z,7.25
2022-12-01T01:31:34.177Z,8.30
2022-12-01T01:34:00.742Z,7.80
2022-12-01T01:36:27.368Z,7.88
2022-12-01T01:38:55.333Z,8.13
2022-12-01T01:41:22.503Z,8.30
2022-12-01T01:43:53.283Z,8.02
2022-12-01T01:46:20.752Z,7.97
2022-12-01T01:49:00.724Z,8.05
2022-12-01T01:51:33.757Z,8.23
2022-12-01T01:54:03.693Z,8.05
2022-12-01T01:56:30.327Z,7.40
2022-12-01T01:58:56.783Z,8.15
2022-12-01T02:01:23.267Z,8.35
2022-12-01T02:03:49.973Z,8.55
2022-12-01T02:06:16.469Z,8.27
2022-12-01T02:08:42.978Z,8.18
2022-12-01T02:11:22.525Z,7.93
2022-12-01T02:13:58.773Z,8.38
2022-12-01T02:16:50.057Z,8.82
2022-12-01T02:19:28.700Z,8.80
2022-12-01T02:22:21.191Z,8.60
2022-12-01T02:24:53.357Z,9.00
2022-12-01T02:27:48.852Z,8.93
2022-12-01T02:30:17.312Z,8.55
2022-12-01T02:33:04.325Z,8.60
2022-12-01T02:35:33.650Z,8.43
2022-12-01T02:38:16.301Z,8.57
2022-12-01T02:41:01.426Z,9.35
2022-12-01T02:43:49.495Z,9.07
2022-12-01T02:46:24.313Z,8.80
2022-12-01T02:48:51.827Z,9.40
2022-12-01T02:51:20.975Z,9.02
2022-12-01T02:53:47.450Z,8.82
2022-12-01T02:56:15.999Z,9.40
2022-12-01T02:58:43.989Z,9.18
2022-12-01T03:01:15.320Z,9.20
2022-12-01T03:04:03.729Z,8.93
2022-12-01T03:06:49.840Z,9.75
2022-12-01T03:09:39.518Z,9.57
2022-12-01T03:12:14.769Z,9.55
2022-12-01T03:15:03.352Z,9.00
2022-12-01T03:17:34.314Z,9.23
2022-12-01T03:20:24.131Z,8.98
2022-12-01T03:22:53.791Z,9.45
2022-12-01T03:25:20.261Z,9.23
2022-12-01T03:28:13.399Z,8.57
2022-12-01T03:30:33.828Z,8.73
2022-12-01T03:33:04.637Z,9.50
2022-12-01T03:35:33.664Z,13.80
2022-12-01T03:38:06.520Z,11.30
2022-12-01T03:40:32.991Z,10.30
2022-12-01T03:43:10.814Z,10.70
2022-12-01T03:45:44.919Z,10.80
2022-12-01T03:50:54.555Z,11.27
2022-12-01T03:53:26.108Z,11.00
2022-12-01T03:55:55.968Z,11.00
2022-12-01T03:58:26.225Z,11.57
2022-12-01T04:00:57.558Z,10.48
2022-12-01T04:03:24.974Z,11.13
2022-12-01T04:05:51.455Z,10.43
2022-12-01T04:08:17.931Z,11.00
2022-12-01T04:10:44.415Z,10.40
2022-12-01T04:13:16.782Z,11.75
2022-12-01T04:15:43.572Z,11.35
2022-12-01T04:18:10.040Z,11.88
2022-12-01T04:20:36.489Z,11.65
2022-12-01T04:23:02.957Z,11.25
2022-12-01T04:25:29.740Z,10.73
2022-12-01T04:27:56.181Z,11.38
2022-12-01T04:30:22.707Z,11.30
2022-12-01T04:32:49.147Z,11.55
2022-12-01T04:35:15.633Z,10.80
2022-12-01T04:37:42.081Z,11.05
2022-12-01T04:40:08.858Z,11.73
2022-12-01T04:42:35.348Z,11.07
2022-12-01T04:45:01.786Z,10.55
2022-12-01T04:47:28.240Z,10.95
2022-12-01T04:49:54.728Z,10.18
2022-12-01T04:52:21.807Z,10.27
2022-12-01T04:54:48.255Z,10.88
2022-12-01T04:57:15.057Z,10.40
2022-12-01T04:59:41.513Z,10.85
2022-12-01T05:02:08.078Z,10.60
2022-12-01T05:04:38.440Z,10.40
2022-12-01T05:07:05.243Z,10.93
2022-12-01T05:09:31.763Z,11.13
2022-12-01T05:11:58.468Z,9.93
2022-12-01T05:14:24.935Z,9.57
2022-12-01T05:16:51.407Z,10.00
2022-12-01T05:19:36.437Z,10.07
2022-12-01T05:22:03.137Z,10.13
2022-12-01T05:24:29.733Z,10.43
2022-12-01T05:26:56.179Z,9.93
2022-12-01T05:29:22.641Z,10.75
2022-12-01T05:31:49.391Z,10.43
2022-12-01T05:34:16.023Z,11.07
2022-12-01T05:36:42.490Z,10.38
2022-12-01T05:39:08.959Z,10.52
2022-12-01T05:41:35.412Z,11.23
2022-12-01T05:44:02.298Z,10.70
2022-12-01T05:46:28.998Z,11.05
2022-12-01T05:48:55.516Z,11.45
2022-12-01T05:51:21.967Z,11.05
2022-12-01T05:53:48.756Z,11.68
2022-12-01T05:56:15.198Z,11.68
2022-12-01T05:58:41.670Z,11.63
2022-12-01T06:01:08.194Z,11.05
2022-12-01T06:03:34.638Z,10.75
2022-12-01T06:06:01.115Z,11.82
2022-12-01T06:08:27.701Z,11.63
2022-12-01T06:10:54.156Z,11.10
2022-12-01T06:13:20.598Z,10.75
2022-12-01T06:15:56.292Z,11.02
2022-12-01T06:18:23.082Z,10.32
2022-12-01T06:20:49.695Z,10.95
2022-12-01T06:23:16.147Z,10.63
2022-12-01T06:25:42.820Z,10.80
2022-12-01T06:28:09.292Z,11.18
2022-12-01T06:30:35.733Z,11.57
2022-12-01T06:33:02.197Z,10.77
2022-12-01T06:35:28.645Z,10.50
2022-12-01T06:37:55.097Z,10.43
2022-12-01T06:40:21.556Z,11.18
2022-12-01T06:42:47.997Z,11.40
2022-12-01T06:45:14.532Z,11.27
2022-12-01T06:47:41.063Z,11.50
2022-12-01T06:50:08.282Z,11.60
2022-12-01T06:52:35.160Z,12.38
2022-12-01T06:55:03.794Z,11.38
2022-12-01T06:57:30.608Z,12.20
2022-12-01T06:59:57.324Z,11.48
2022-12-01T07:02:24.240Z,11.50
2022-12-01T07:04:50.721Z,12.23
2022-12-01T07:07:17.445Z,11.52
2022-12-01T07:09:44.337Z,11.38
2022-12-01T07:12:10.830Z,11.60
2022-12-01T07:14:37.812Z,12.60
2022-12-01T07:17:04.546Z,12.27
2022-12-01T07:19:31.200Z,12.60
2022-12-01T07:21:57.793Z,11.57
2022-12-01T07:24:24.500Z,11.23
2022-12-01T07:26:50.945Z,12.07
2022-12-01T07:29:17.465Z,11.50
2022-12-01T07:31:44.085Z,12.05
2022-12-01T07:34:13.406Z,11.40
2022-12-01T07:36:39.854Z,12.18
2022-12-01T07:39:07.513Z,12.18
2022-12-01T07:41:34.332Z,12.25
2022-12-01T07:44:01.620Z,11.38
2022-12-01T07:46:28.286Z,12.35
2022-12-01T07:48:55.205Z,11.13
2022-12-01T07:51:22.388Z,12.20
2022-12-01T07:53:49.539Z,11.25
2022-12-01T07:56:16.323Z,11.75
2022-12-01T07:58:42.781Z,12.15
2022-12-01T08:01:13.827Z,11.80
2022-12-01T08:03:40.478Z,11.48
2022-12-01T08:06:07.258Z,12.40
2022-12-01T08:08:34.470Z,10.95
2022-12-01T08:11:02.162Z,11.65
2022-12-01T08:13:28.776Z,11.35
2022-12-01T08:15:55.273Z,11.73
2022-12-01T08:18:22.812Z,11.23
2022-12-01T08:20:50.114Z,12.00
2022-12-01T08:23:16.613Z,11.77
2022-12-01T08:25:43.068Z,11.82
2022-12-01T08:28:09.521Z,12.68
2022-12-01T08:30:36.143Z,13.07
2022-12-01T08:33:02.654Z,14.30
2022-12-01T08:35:29.117Z,14.75
2022-12-01T08:37:55.703Z,15.63
2022-12-01T08:40:22.232Z,14.40
2022-12-01T08:42:48.695Z,15.63
2022-12-01T08:45:15.193Z,14.38
2022-12-01T08:47:41.662Z,16.85
2022-12-01T08:50:08.356Z,15.93
2022-12-01T08:52:34.952Z,14.88
2022-12-01T08:55:01.507Z,16.02
2022-12-01T08:57:31.407Z,15.73
2022-12-01T08:59:57.902Z,16.48
2022-12-01T09:02:24.537Z,15.20
2022-12-01T09:04:51.321Z,14.18
2022-12-01T09:07:21.538Z,16.13
2022-12-01T09:09:52.448Z,15.40
2022-12-01T09:12:18.893Z,14.65
2022-12-01T09:14:49.568Z,14.18
2022-12-01T09:17:16.576Z,14.20
2022-12-01T09:19:43.874Z,13.52
2022-12-01T09:22:10.648Z,14.13
2022-12-01T09:24:37.185Z,14.73
2022-12-01T09:27:03.684Z,14.07
2022-12-01T09:29:30.439Z,12.45
2022-12-01T09:31:57.208Z,14.00
2022-12-01T09:34:23.801Z,13.02
2022-12-01T09:36:50.285Z,12.68
2022-12-01T09:39:19.041Z,12.88
2022-12-01T09:42:09.082Z,12.13
2022-12-01T09:44:40.092Z,12.27
2022-12-01T09:47:22.228Z,12.63
2022-12-01T09:50:02.977Z,12.45
2022-12-01T09:52:39.672Z,11.98
2022-12-01T09:55:11.607Z,12.13
2022-12-01T09:57:39.787Z,11.85
2022-12-01T10:00:20.990Z,12.75
2022-12-01T10:03:06.529Z,11.85
2022-12-01T10:09:25.760Z,11.50
2022-12-01T10:11:54.953Z,11.57
2022-12-01T10:14:22.055Z,12.50
2022-12-01T10:17:19.284Z,10.80
2022-12-01T10:19:57.795Z,12.48
2022-12-01T10:22:31.892Z,13.15
2022-12-01T10:27:42.768Z,11.45
2022-12-01T10:30:16.182Z,12.07
2022-12-01T10:33:07.179Z,12.40
2022-12-01T10:35:37.005Z,12.27
2022-12-01T10:38:06.717Z,12.10
2022-12-01T10:40:36.659Z,12.27
2022-12-01T10:43:03.207Z,12.20
2022-12-01T10:45:33.770Z,11.88
2022-12-01T10:48:15.021Z,12.23
2022-12-01T10:51:16.805Z,11.68
2022-12-01T10:53:43.317Z,11.70
2022-12-01T10:56:16.049Z,11.15
2022-12-01T10:58:48.092Z,11.95
2022-12-01T11:01:22.399Z,10.77
2022-12-01T11:03:50.994Z,11.27
2022-12-01T11:06:21.705Z,11.02
2022-12-01T11:09:25.957Z,11.45
2022-12-01T11:12:15.116Z,11.70
2022-12-01T11:14:44.865Z,11.98
2022-12-01T11:17:31.293Z,10.77
2022-12-01T11:19:57.902Z,10.82
2022-12-01T11:22:30.685Z,10.75
2022-12-01T11:25:00.835Z,10.82
2022-12-01T11:27:30.333Z,10.93
2022-12-01T11:30:04.751Z,10.95
2022-12-01T11:32:36.114Z,11.60
2022-12-01T11:35:14.524Z,10.88
2022-12-01T11:38:13.302Z,11.23
2022-12-01T11:40:54.980Z,11.32
2022-12-01T11:43:29.558Z,11.75
2022-12-01T11:45:57.130Z,11.20
2022-12-01T11:48:28.602Z,11.50
2022-12-01T11:51:08.280Z,12.32
2022-12-01T11:53:36.796Z,11.32
2022-12-01T11:56:20.762Z,11.48
2022-12-01T11:58:47.828Z,10.80
2022-12-01T12:01:23.337Z,11.30
2022-12-01T12:04:04.386Z,11.43
2022-12-01T12:06:40.476Z,11.27
2022-12-01T12:09:25.957Z,11.82
2022-12-01T12:12:16.569Z,11.27
2022-12-01T12:15:17.273Z,11.63
2022-12-01T12:18:05.621Z,11.77
2022-12-01T12:20:34.368Z,11.13
2022-12-01T12:23:34.990Z,11.43
2022-12-01T12:26:21.159Z,12.00
2022-12-01T12:29:15.970Z,11.50
2022-12-01T12:32:03.858Z,10.60
2022-12-01T12:34:57.003Z,11.63
2022-12-01T12:37:33.298Z,13.02
2022-12-01T12:40:21.878Z,12.90
2022-12-01T12:42:52.350Z,12.57
2022-12-01T12:45:35.357Z,11.93
2022-12-01T12:48:13.063Z,12.05
2022-12-01T12:50:56.376Z,12.13
2022-12-01T12:53:27.207Z,12.88
2022-12-01T12:55:57.622Z,12.73
2022-12-01T12:58:27.566Z,11.98
2022-12-01T13:01:06.028Z,12.07
2022-12-01T13:03:35.675Z,12.60
2022-12-01T13:06:06.730Z,12.18
2022-12-01T13:08:58.161Z,12.02
2022-12-01T13:11:38.450Z,12.23
2022-12-01T13:14:12.092Z,11.88
2022-12-01T13:16:44.264Z,12.45
2022-12-01T13:19:28.694Z,12.48
2022-12-01T13:24:23.978Z,13.85
2022-12-01T13:27:13.280Z,12.95
2022-12-01T13:29:44.425Z,12.68
2022-12-01T13:32:28.993Z,12.07
2022-12-01T13:34:55.565Z,12.13
2022-12-01T13:37:26.754Z,11.60
2022-12-01T13:39:54.215Z,11.85
2022-12-01T13:42:27.053Z,11.93
2022-12-01T13:45:01.053Z,11.80
2022-12-01T13:47:39.941Z,11.38
2022-12-01T13:50:47.874Z,11.70
2022-12-01T13:53:20.275Z,11.68
2022-12-01T13:56:06.020Z,11.10
2022-12-01T13:58:32.639Z,11.15
2022-12-01T14:01:21.095Z,11.55
2022-12-01T14:04:01.041Z,11.48
2022-12-01T14:06:49.034Z,11.70
2022-12-01T14:09:26.427Z,11.15
2022-12-01T14:11:56.364Z,11.25
2022-12-01T14:14:26.270Z,11.00
2022-12-01T14:16:58.678Z,11.68
2022-12-01T14:19:40.797Z,12.35
2022-12-01T14:22:07.740Z,12.35
2022-12-01T14:24:38.275Z,10.90
2022-12-01T14:27:05.008Z,11.68
2022-12-01T14:29:38.650Z,11.27
2022-12-01T14:32:08.297Z,11.13
2022-12-01T14:34:35.443Z,10.93
2022-12-01T14:37:14.047Z,11.15
2022-12-01T14:39:42.326Z,11.15
2022-12-01T14:42:11.709Z,11.38
2022-12-01T14:44:43.218Z,11.02
2022-12-01T14:47:16.428Z,11.65
2022-12-01T14:50:18.583Z,11.20
2022-12-01T14:52:54.357Z,10.35
2022-12-01T14:55:39.118Z,11.30
2022-12-01T14:58:25.575Z,11.40
2022-12-01T15:01:05.992Z,10.77
2022-12-01T15:03:41.751Z,11.43
2022-12-01T15:06:08.428Z,10.75
2022-12-01T15:11:25.376Z,11.48
2022-12-01T15:13:53.547Z,11.30
2022-12-01T15:16:21.888Z,11.77
2022-12-01T15:18:48.699Z,10.95
2022-12-01T15:21:29.450Z,10.45
2022-12-01T15:24:00.756Z,10.05
2022-12-01T15:26:45.251Z,10.35
2022-12-01T15:29:19.153Z,10.50
2022-12-01T15:31:48.378Z,10.93
2022-12-01T15:34:23.733Z,11.07
2022-12-01T15:36:51.190Z,10.80
2022-12-01T15:39:19.759Z,11.65
2022-12-01T15:41:48.538Z,10.85
2022-12-01T15:44:27.057Z,10.43
2022-12-01T15:46:53.521Z,10.23
2022-12-01T15:49:27.553Z,10.70
2022-12-01T15:54:23.169Z,10.02
2022-12-01T16:00:36.546Z,10.20
2022-12-01T16:03:03.251Z,10.18
2022-12-01T16:05:33.232Z,9.50
2022-12-01T16:08:16.953Z,9.70
2022-12-01T16:10:43.662Z,9.40
2022-12-01T16:13:45.104Z,10.27
2022-12-01T16:16:26.471Z,10.15
2022-12-01T16:18:57.686Z,9.32
2022-12-01T16:21:24.288Z,10.50
2022-12-01T16:24:04.838Z,9.73
2022-12-01T16:26:32.564Z,9.35
2022-12-01T16:28:59.108Z,10.00
2022-12-01T16:31:26.174Z,10.02
2022-12-01T16:34:13.931Z,9.60
2022-12-01T16:36:45.118Z,9.75
2022-12-01T16:39:15.259Z,8.98
2022-12-01T16:41:44.599Z,9.18
2022-12-01T16:44:28.967Z,9.68
2022-12-01T16:46:55.904Z,9.98
2022-12-01T16:49:22.338Z,9.55
2022-12-01T16:51:57.039Z,10.18
2022-12-01T16:54:25.245Z,10.40
2022-12-01T16:56:51.716Z,9.50
2022-12-01T16:59:18.425Z,10.02
2022-12-01T17:01:44.887Z,10.18
2022-12-01T17:04:11.435Z,10.00
2022-12-01T17:06:38.574Z,9.82
2022-12-01T17:09:05.004Z,9.43
2022-12-01T17:11:32.102Z,8.73
2022-12-01T17:13:58.688Z,9.73
2022-12-01T17:16:25.416Z,8.80
2022-12-01T17:18:51.884Z,9.40
2022-12-01T17:21:18.331Z,9.30
2022-12-01T17:23:44.781Z,9.82
2022-12-01T17:26:13.411Z,9.45
2022-12-01T17:28:39.860Z,9.40
2022-12-01T17:31:06.750Z,9.75
2022-12-01T17:33:33.512Z,8.82
2022-12-01T17:36:12.744Z,9.30
2022-12-01T17:38:43.154Z,9.40
2022-12-01T17:41:11.482Z,9.13
2022-12-01T17:43:37.945Z,8.85
2022-12-01T17:46:05.626Z,9.00
2022-12-01T17:48:40.427Z,9.65
2022-12-01T17:51:07.064Z,10.43
2022-12-01T17:53:33.517Z,12.18
2022-12-01T17:55:59.919Z,12.65
2022-12-01T17:58:26.556Z,12.70
2022-12-01T18:00:53.352Z,13.50
2022-12-01T18:03:19.994Z,13.65
2022-12-01T18:06:01.075Z,13.13
2022-12-01T18:08:29.327Z,13.43
2022-12-01T18:10:55.841Z,12.80
2022-12-01T18:13:22.328Z,12.68
2022-12-01T18:15:49.134Z,12.77
2022-12-01T18:18:15.629Z,12.20
2022-12-01T18:20:42.735Z,13.10
2022-12-01T18:23:09.879Z,12.32
2022-12-01T18:25:36.729Z,12.70
2022-12-01T18:28:03.468Z,12.13
2022-12-01T18:30:30.125Z,12.98
2022-12-01T18:32:59.283Z,12.32
2022-12-01T18:35:31.588Z,12.43
2022-12-01T18:37:58.491Z,12.15
2022-12-01T18:40:25.078Z,12.18
2022-12-01T18:42:51.566Z,11.65
2022-12-01T18:45:21.323Z,11.88
2022-12-01T18:47:48.178Z,11.80
2022-12-01T18:50:14.760Z,12.05
2022-12-01T18:52:41.278Z,11.82
2022-12-01T18:55:08.188Z,11.77
2022-12-01T18:57:34.659Z,12.35
2022-12-01T19:00:01.627Z,11.55
2022-12-01T19:02:28.196Z,12.30
2022-12-01T19:04:54.709Z,11.88
2022-12-01T19:07:25.235Z,11.80
2022-12-01T19:09:56.122Z,12.35
2022-12-01T19:12:22.579Z,11.73
2022-12-01T19:14:49.312Z,11.27
2022-12-01T19:17:18.053Z,12.00
2022-12-01T19:19:44.854Z,11.30
2022-12-01T19:22:11.345Z,12.15
2022-12-01T19:24:37.808Z,12.15
2022-12-01T19:27:04.424Z,11.75
2022-12-01T19:29:30.893Z,11.95
2022-12-01T19:31:57.475Z,12.25
2022-12-01T19:34:24.233Z,12.35
2022-12-01T19:36:53.497Z,12.57
2022-12-01T19:39:20.096Z,10.90
2022-12-01T19:41:46.650Z,11.73
2022-12-01T19:44:13.112Z,11.73
2022-12-01T19:46:39.614Z,11.90
2022-12-01T19:49:06.718Z,11.23
2022-12-01T19:51:37.445Z,11.52
2022-12-01T19:54:12.856Z,11.93
2022-12-01T19:56:39.340Z,11.20
2022-12-01T19:59:07.778Z,11.45
2022-12-01T20:01:34.344Z,12.55
2022-12-01T20:04:00.885Z,12.75
2022-12-01T20:06:28.635Z,13.77
2022-12-01T20:08:56.237Z,15.18
2022-12-01T20:11:22.827Z,15.18
2022-12-01T20:13:49.362Z,15.27
2022-12-01T20:16:17.956Z,15.55
2022-12-01T20:18:44.462Z,14.35
2022-12-01T20:21:19.155Z,14.57
2022-12-01T20:23:47.268Z,15.00
2022-12-01T20:26:13.934Z,14.15
2022-12-01T20:28:40.496Z,15.10
2022-12-01T20:31:11.739Z,15.50
2022-12-01T20:33:38.644Z,14.75
2022-12-01T20:36:06.035Z,15.27
2022-12-01T20:38:32.485Z,14.85
2022-12-01T20:40:58.932Z,14.15
2022-12-01T20:43:25.408Z,14.93
2022-12-01T20:45:51.989Z,14.95
2022-12-01T20:48:18.577Z,15.48
2022-12-01T20:50:45.039Z,15.02
2022-12-01T20:53:11.562Z,15.27
2022-12-01T20:55:38.008Z,14.48
2022-12-01T20:58:04.979Z,15.07
2022-12-01T21:00:31.584Z,15.15
2022-12-01T21:02:58.036Z,14.35
2022-12-01T21:05:25.252Z,14.32
2022-12-01T21:07:52.180Z,14.23
2022-12-01T21:10:20.304Z,14.32
2022-12-01T21:13:07.835Z,14.35
2022-12-01T21:15:41.721Z,18.35
2022-12-01T21:18:15.771Z,15.88
2022-12-01T21:23:17.435Z,24.08
2022-12-01T21:25:44.225Z,21.27
2022-12-01T21:28:23.579Z,20.42
2022-12-01T21:30:51.229Z,20.17
2022-12-01T21:33:25.974Z,20.52
2022-12-01T21:35:52.672Z,20.25
2022-12-01T21:38:22.113Z,19.88
2022-12-01T21:40:48.866Z,18.13
2022-12-01T21:43:18.179Z,18.33
2022-12-01T21:45:44.704Z,18.90
2022-12-01T21:48:15.450Z,18.35
2022-12-01T21:50:42.032Z,17.92
2022-12-01T21:53:16.022Z,18.40
2022-12-01T21:58:24.650Z,17.92
2022-12-01T22:00:55.225Z,16.83
2022-12-01T22:03:33.050Z,16.67
2022-12-01T22:06:29.891Z,17.00
2022-12-01T22:09:35.176Z,16.67
2022-12-01T22:12:26.006Z,17.15
2022-12-01T22:14:53.570Z,16.85
2022-12-01T22:17:20.649Z,16.63
2022-12-01T22:19:57.967Z,17.45
2022-12-01T22:22:26.062Z,17.27
2022-12-01T22:25:00.016Z,17.15
2022-12-01T22:27:34.176Z,16.48
2022-12-01T22:32:46.833Z,16.70
2022-12-01T22:35:26.256Z,16.38
2022-12-01T22:38:10.876Z,16.70
2022-12-01T22:40:57.759Z,16.45
2022-12-01T22:43:28.988Z,15.55
2022-12-01T22:46:07.598Z,16.55
2022-12-01T22:48:39.609Z,16.15
2022-12-01T22:51:26.482Z,15.80
2022-12-01T22:54:26.193Z,15.75
2022-12-01T22:57:02.723Z,15.07
2022-12-01T22:59:36.288Z,16.40
2022-12-01T23:02:16.513Z,15.30
2022-12-01T23:04:45.905Z,16.23
2022-12-01T23:07:31.724Z,15.85
2022-12-01T23:10:22.180Z,15.38
2022-12-01T23:12:49.892Z,16.25
2022-12-01T23:15:36.693Z,14.80
2022-12-01T23:18:13.991Z,15.88
2022-12-01T23:20:40.947Z,15.15
2022-12-01T23:23:14.007Z,14.90
2022-12-01T23:25:41.577Z,14.85
2022-12-01T23:28:08.504Z,15.55
2022-12-01T23:30:35.187Z,14.30
2022-12-01T23:33:21.756Z,14.52
2022-12-01T23:36:00.298Z,14.77
2022-12-01T23:38:31.264Z,14.50
2022-12-01T23:41:00.488Z,13.90
2022-12-01T23:43:33.094Z,14.57
2022-12-01T23:46:19.158Z,14.35
2022-12-01T23:48:48.166Z,13.80
2022-12-01T23:51:20.268Z,14.77
2022-12-01T23:53:46.840Z,14.50
2022-12-01T23:56:18.403Z,13.85
2022-12-01T23:58:44.877Z,13.10
